sensor_id;sensor_type;location;lat;lon;timestamp;P1;durP1;ratioP1;P2;durP2;ratioP2
19645;SDS011;9971;52.446;13.452;2022-09-01T00:03:24;0.78;;;0.68;;
19645;SDS011;9971;52.446;13.452;2022-09-01T00:08:26;2.85;;;0.90;;
19645;SDS011;9971;52.446;13.452;2022-09-01T00:13:29;0.72;;;0.62;;
19645;SDS011;9971;52.446;13.452;2022-09-01T00:18:31;0.70;;;0.68;;
19645;SDS011;9971;52.446;13.452;2022-09-01T00:23:33;0.50;;;0.50;;
19645;SDS011;9971;52.446;13.452;2022-09-01T00:28:36;0.70;;;0.67;;
19645;SDS011;9971;52.446;13.452;2022-09-01T00:33:37;0.57;;;0.53;;
19645;SDS011;9971;52.446;13.452;2022-09-01T00:38:40;1.22;;;0.60;;
19645;SDS011;9971;52.446;13.452;2022-09-01T00:43:50;0.57;;;0.57;;
19645;SDS011;9971;52.446;13.452;2022-09-01T00:48:55;1.43;;;1.03;;
19645;SDS011;9971;52.446;13.452;2022-09-01T00:53:56;0.98;;;0.60;;
19645;SDS011;9971;52.446;13.452;2022-09-01T00:58:57;0.43;;;0.43;;
19645;SDS011;9971;52.446;13.452;2022-09-01T01:03:59;0.40;;;0.40;;
19645;SDS011;9971;52.446;13.452;2022-09-01T01:09:01;0.70;;;0.60;;
19645;SDS011;9971;52.446;13.452;2022-09-01T01:14:05;1.47;;;0.60;;
19645;SDS011;9971;52.446;13.452;2022-09-01T01:19:05;0.75;;;0.75;;
19645;SDS011;9971;52.446;13.452;2022-09-01T01:29:21;0.50;;;0.50;;
19645;SDS011;9971;52.446;13.452;2022-09-01T01:34:23;0.50;;;0.50;;
19645;SDS011;9971;52.446;13.452;2022-09-01T01:39:25;2.27;;;0.90;;
19645;SDS011;9971;52.446;13.452;2022-09-01T01:44:27;1.35;;;0.68;;
19645;SDS011;9971;52.446;13.452;2022-09-01T01:49:30;1.73;;;0.60;;
19645;SDS011;9971;52.446;13.452;2022-09-01T01:54:32;1.57;;;0.82;;
19645;SDS011;9971;52.446;13.452;2022-09-01T01:59:35;1.25;;;0.60;;
19645;SDS011;9971;52.446;13.452;2022-09-01T02:04:37;1.60;;;0.68;;
19645;SDS011;9971;52.446;13.452;2022-09-01T02:09:39;0.73;;;0.60;;
19645;SDS011;9971;52.446;13.452;2022-09-01T02:14:41;0.73;;;0.70;;
19645;SDS011;9971;52.446;13.452;2022-09-01T02:19:43;1.67;;;0.82;;
19645;SDS011;9971;52.446;13.452;2022-09-01T02:24:46;0.50;;;0.50;;
19645;SDS011;9971;52.446;13.452;2022-09-01T02:29:48;0.85;;;0.70;;
19645;SDS011;9971;52.446;13.452;2022-09-01T02:34:50;0.78;;;0.65;;
19645;SDS011;9971;52.446;13.452;2022-09-01T02:39:52;0.57;;;0.57;;
19645;SDS011;9971;52.446;13.452;2022-09-01T02:44:54;0.70;;;0.70;;
19645;SDS011;9971;52.446;13.452;2022-09-01T02:49:56;0.80;;;0.77;;
19645;SDS011;9971;52.446;13.452;2022-09-01T02:54:58;0.80;;;0.50;;
19645;SDS011;9971;52.446;13.452;2022-09-01T03:00:00;0.50;;;0.50;;
19645;SDS011;9971;52.446;13.452;2022-09-01T03:05:03;0.73;;;0.70;;
19645;SDS011;9971;52.446;13.452;2022-09-01T03:10:06;0.80;;;0.80;;
19645;SDS011;9971;52.446;13.452;2022-09-01T03:15:08;1.20;;;0.70;;
19645;SDS011;9971;52.446;13.452;2022-09-01T03:20:10;0.85;;;0.85;;
19645;SDS011;9971;52.446;13.452;2022-09-01T03:25:13;1.42;;;0.80;;
19645;SDS011;9971;52.446;13.452;2022-09-01T03:30:15;1.07;;;0.77;;
19645;SDS011;9971;52.446;13.452;2022-09-01T03:35:17;0.65;;;0.60;;
19645;SDS011;9971;52.446;13.452;2022-09-01T03:40:19;1.32;;;0.90;;
19645;SDS011;9971;52.446;13.452;2022-09-01T03:45:22;1.05;;;0.95;;
19645;SDS011;9971;52.446;13.452;2022-09-01T03:50:24;0.98;;;0.90;;
19645;SDS011;9971;52.446;13.452;2022-09-01T03:55:28;1.22;;;1.02;;
19645;SDS011;9971;52.446;13.452;2022-09-01T04:00:28;1.77;;;0.90;;
19645;SDS011;9971;52.446;13.452;2022-09-01T04:05:31;0.90;;;0.88;;
19645;SDS011;9971;52.446;13.452;2022-09-01T04:10:33;0.85;;;0.85;;
19645;SDS011;9971;52.446;13.452;2022-09-01T04:15:35;1.00;;;1.00;;
19645;SDS011;9971;52.446;13.452;2022-09-01T04:20:39;1.27;;;1.17;;
19645;SDS011;9971;52.446;13.452;2022-09-01T04:25:40;2.00;;;1.07;;
19645;SDS011;9971;52.446;13.452;2022-09-01T04:30:42;3.23;;;1.50;;
19645;SDS011;9971;52.446;13.452;2022-09-01T04:35:44;1.32;;;1.20;;
19645;SDS011;9971;52.446;13.452;2022-09-01T04:40:47;1.47;;;1.22;;
19645;SDS011;9971;52.446;13.452;2022-09-01T04:45:49;2.77;;;1.40;;
19645;SDS011;9971;52.446;13.452;2022-09-01T04:50:51;1.92;;;1.30;;
19645;SDS011;9971;52.446;13.452;2022-09-01T04:55:53;2.42;;;1.30;;
19645;SDS011;9971;52.446;13.452;2022-09-01T05:00:55;1.90;;;1.10;;
19645;SDS011;9971;52.446;13.452;2022-09-01T05:05:58;1.40;;;1.10;;
19645;SDS011;9971;52.446;13.452;2022-09-01T05:11:02;0.95;;;0.90;;
19645;SDS011;9971;52.446;13.452;2022-09-01T05:16:04;2.23;;;1.10;;
19645;SDS011;9971;52.446;13.452;2022-09-01T05:21:06;3.20;;;1.13;;
19645;SDS011;9971;52.446;13.452;2022-09-01T05:26:12;2.10;;;1.10;;
19645;SDS011;9971;52.446;13.452;2022-09-01T05:31:13;3.13;;;1.30;;
19645;SDS011;9971;52.446;13.452;2022-09-01T05:36:16;1.13;;;1.00;;
19645;SDS011;9971;52.446;13.452;2022-09-01T05:41:17;1.53;;;1.10;;
19645;SDS011;9971;52.446;13.452;2022-09-01T05:46:20;1.37;;;1.27;;
19645;SDS011;9971;52.446;13.452;2022-09-01T05:51:22;3.03;;;1.20;;
19645;SDS011;9971;52.446;13.452;2022-09-01T05:56:24;1.77;;;0.90;;
19645;SDS011;9971;52.446;13.452;2022-09-01T06:01:26;1.50;;;1.00;;
19645;SDS011;9971;52.446;13.452;2022-09-01T06:06:27;2.07;;;0.90;;
19645;SDS011;9971;52.446;13.452;2022-09-01T06:11:29;1.63;;;1.00;;
19645;SDS011;9971;52.446;13.452;2022-09-01T06:16:31;1.30;;;1.07;;
19645;SDS011;9971;52.446;13.452;2022-09-01T06:21:33;3.12;;;0.88;;
19645;SDS011;9971;52.446;13.452;2022-09-01T06:26:36;2.70;;;1.30;;
19645;SDS011;9971;52.446;13.452;2022-09-01T06:31:38;2.60;;;1.23;;
19645;SDS011;9971;52.446;13.452;2022-09-01T06:36:40;1.12;;;1.05;;
19645;SDS011;9971;52.446;13.452;2022-09-01T06:41:43;1.27;;;1.00;;
19645;SDS011;9971;52.446;13.452;2022-09-01T06:46:45;1.07;;;0.80;;
19645;SDS011;9971;52.446;13.452;2022-09-01T06:51:48;0.53;;;0.53;;
19645;SDS011;9971;52.446;13.452;2022-09-01T06:56:50;0.25;;;0.20;;
19645;SDS011;9971;52.446;13.452;2022-09-01T07:01:52;0.13;;;0.10;;
19645;SDS011;9971;52.446;13.452;2022-09-01T07:06:55;0.20;;;0.20;;
19645;SDS011;9971;52.446;13.452;2022-09-01T07:11:57;0.20;;;0.17;;
19645;SDS011;9971;52.446;13.452;2022-09-01T07:16:59;0.10;;;0.10;;
19645;SDS011;9971;52.446;13.452;2022-09-01T07:22:03;0.10;;;0.10;;
19645;SDS011;9971;52.446;13.452;2022-09-01T07:27:04;0.10;;;0.10;;
19645;SDS011;9971;52.446;13.452;2022-09-01T07:32:06;0.17;;;0.17;;
19645;SDS011;9971;52.446;13.452;2022-09-01T07:37:09;0.10;;;0.10;;
19645;SDS011;9971;52.446;13.452;2022-09-01T07:42:11;0.13;;;0.13;;
19645;SDS011;9971;52.446;13.452;2022-09-01T07:47:13;0.30;;;0.30;;
19645;SDS011;9971;52.446;13.452;2022-09-01T07:52:15;0.25;;;0.10;;
19645;SDS011;9971;52.446;13.452;2022-09-01T07:57:18;0.08;;;0.00;;
19645;SDS011;9971;52.446;13.452;2022-09-01T08:02:20;0.08;;;0.08;;
19645;SDS011;9971;52.446;13.452;2022-09-01T08:07:23;0.13;;;0.13;;
19645;SDS011;9971;52.446;13.452;2022-09-01T08:12:26;0.27;;;0.20;;
19645;SDS011;9971;52.446;13.452;2022-09-01T08:17:29;0.50;;;0.20;;
19645;SDS011;9971;52.446;13.452;2022-09-01T08:22:31;0.13;;;0.13;;
19645;SDS011;9971;52.446;13.452;2022-09-01T08:27:34;0.00;;;0.00;;
19645;SDS011;9971;52.446;13.452;2022-09-01T08:32:36;0.17;;;0.00;;
19645;SDS011;9971;52.446;13.452;2022-09-01T08:37:38;0.10;;;0.10;;
19645;SDS011;9971;52.446;13.452;2022-09-01T08:42:48;0.20;;;0.20;;
19645;SDS011;9971;52.446;13.452;2022-09-01T08:48:01;0.13;;;0.13;;
19645;SDS011;9971;52.446;13.452;2022-09-01T08:53:04;0.20;;;0.10;;
19645;SDS011;9971;52.446;13.452;2022-09-01T08:58:05;0.43;;;0.40;;
19645;SDS011;9971;52.446;13.452;2022-09-01T09:03:12;0.10;;;0.10;;
19645;SDS011;9971;52.446;13.452;2022-09-01T09:09:04;0.10;;;0.10;;
19645;SDS011;9971;52.446;13.452;2022-09-01T09:19:31;0.63;;;0.10;;
19645;SDS011;9971;52.446;13.452;2022-09-01T09:29:55;0.30;;;0.30;;
19645;SDS011;9971;52.446;13.452;2022-09-01T09:34:57;0.00;;;0.00;;
19645;SDS011;9971;52.446;13.452;2022-09-01T09:40:03;0.10;;;0.10;;
19645;SDS011;9971;52.446;13.452;2022-09-01T09:45:15;0.20;;;0.20;;
19645;SDS011;9971;52.446;13.452;2022-09-01T09:50:33;0.10;;;0.10;;
19645;SDS011;9971;52.446;13.452;2022-09-01T09:55:33;0.20;;;0.20;;
19645;SDS011;9971;52.446;13.452;2022-09-01T10:00:35;0.10;;;0.10;;
19645;SDS011;9971;52.446;13.452;2022-09-01T10:05:40;0.20;;;0.20;;
19645;SDS011;9971;52.446;13.452;2022-09-01T10:10:43;0.00;;;0.00;;
19645;SDS011;9971;52.446;13.452;2022-09-01T10:15:50;0.10;;;0.10;;
19645;SDS011;9971;52.446;13.452;2022-09-01T10:20:52;0.10;;;0.10;;
19645;SDS011;9971;52.446;13.452;2022-09-01T10:25:54;0.10;;;0.10;;
19645;SDS011;9971;52.446;13.452;2022-09-01T10:30:54;0.00;;;0.00;;
19645;SDS011;9971;52.446;13.452;2022-09-01T10:35:56;0.17;;;0.17;;
19645;SDS011;9971;52.446;13.452;2022-09-01T10:41:00;0.00;;;0.00;;
19645;SDS011;9971;52.446;13.452;2022-09-01T10:46:08;0.10;;;0.10;;
19645;SDS011;9971;52.446;13.452;2022-09-01T10:56:42;0.10;;;0.10;;
19645;SDS011;9971;52.446;13.452;2022-09-01T11:02:17;0.00;;;0.00;;
19645;SDS011;9971;52.446;13.452;2022-09-01T11:07:03;0.10;;;0.10;;
19645;SDS011;9971;52.446;13.452;2022-09-01T11:12:11;0.10;;;0.10;;
19645;SDS011;9971;52.446;13.452;2022-09-01T11:17:29;0.10;;;0.10;;
19645;SDS011;9971;52.446;13.452;2022-09-01T11:22:31;0.07;;;0.07;;
19645;SDS011;9971;52.446;13.452;2022-09-01T11:32:49;0.23;;;0.20;;
19645;SDS011;9971;52.446;13.452;2022-09-01T11:37:51;0.00;;;0.00;;
19645;SDS011;9971;52.446;13.452;2022-09-01T11:42:52;0.20;;;0.10;;
19645;SDS011;9971;52.446;13.452;2022-09-01T11:47:55;0.13;;;0.10;;
19645;SDS011;9971;52.446;13.452;2022-09-01T11:52:57;0.20;;;0.10;;
19645;SDS011;9971;52.446;13.452;2022-09-01T11:57:59;0.30;;;0.30;;
19645;SDS011;9971;52.446;13.452;2022-09-01T12:03:00;0.10;;;0.10;;
19645;SDS011;9971;52.446;13.452;2022-09-01T12:08:09;0.00;;;0.00;;
19645;SDS011;9971;52.446;13.452;2022-09-01T12:13:07;0.03;;;0.03;;
19645;SDS011;9971;52.446;13.452;2022-09-01T12:18:17;0.00;;;0.00;;
19645;SDS011;9971;52.446;13.452;2022-09-01T12:23:25;0.00;;;0.00;;
19645;SDS011;9971;52.446;13.452;2022-09-01T12:28:27;0.00;;;0.00;;
19645;SDS011;9971;52.446;13.452;2022-09-01T12:33:28;0.10;;;0.10;;
19645;SDS011;9971;52.446;13.452;2022-09-01T12:38:29;0.10;;;0.10;;
19645;SDS011;9971;52.446;13.452;2022-09-01T12:43:34;0.00;;;0.00;;
19645;SDS011;9971;52.446;13.452;2022-09-01T12:48:35;0.10;;;0.10;;
19645;SDS011;9971;52.446;13.452;2022-09-01T12:53:37;0.10;;;0.10;;
19645;SDS011;9971;52.446;13.452;2022-09-01T12:58:40;0.10;;;0.00;;
19645;SDS011;9971;52.446;13.452;2022-09-01T13:03:42;0.00;;;0.00;;
19645;SDS011;9971;52.446;13.452;2022-09-01T13:08:44;0.00;;;0.00;;
19645;SDS011;9971;52.446;13.452;2022-09-01T13:13:46;0.00;;;0.00;;
19645;SDS011;9971;52.446;13.452;2022-09-01T13:18:49;0.08;;;0.08;;
19645;SDS011;9971;52.446;13.452;2022-09-01T13:23:52;0.30;;;0.20;;
19645;SDS011;9971;52.446;13.452;2022-09-01T13:28:54;0.00;;;0.00;;
19645;SDS011;9971;52.446;13.452;2022-09-01T13:33:57;0.20;;;0.15;;
19645;SDS011;9971;52.446;13.452;2022-09-01T13:38:58;0.00;;;0.00;;
19645;SDS011;9971;52.446;13.452;2022-09-01T13:44:01;0.82;;;0.28;;
19645;SDS011;9971;52.446;13.452;2022-09-01T13:49:03;0.10;;;0.03;;
19645;SDS011;9971;52.446;13.452;2022-09-01T13:54:06;0.30;;;0.30;;
19645;SDS011;9971;52.446;13.452;2022-09-01T13:59:08;0.00;;;0.00;;
19645;SDS011;9971;52.446;13.452;2022-09-01T14:04:10;0.05;;;0.05;;
19645;SDS011;9971;52.446;13.452;2022-09-01T14:09:13;0.00;;;0.00;;
19645;SDS011;9971;52.446;13.452;2022-09-01T14:14:15;0.13;;;0.13;;
19645;SDS011;9971;52.446;13.452;2022-09-01T14:19:17;0.30;;;0.10;;
19645;SDS011;9971;52.446;13.452;2022-09-01T14:24:20;0.25;;;0.17;;
19645;SDS011;9971;52.446;13.452;2022-09-01T14:29:23;0.17;;;0.17;;
19645;SDS011;9971;52.446;13.452;2022-09-01T14:34:25;0.10;;;0.10;;
19645;SDS011;9971;52.446;13.452;2022-09-01T14:39:28;0.10;;;0.10;;
19645;SDS011;9971;52.446;13.452;2022-09-01T14:44:30;0.10;;;0.10;;
19645;SDS011;9971;52.446;13.452;2022-09-01T14:49:32;0.42;;;0.10;;
19645;SDS011;9971;52.446;13.452;2022-09-01T14:54:37;0.10;;;0.10;;
19645;SDS011;9971;52.446;13.452;2022-09-01T14:59:39;0.10;;;0.10;;
19645;SDS011;9971;52.446;13.452;2022-09-01T15:04:40;0.10;;;0.10;;
19645;SDS011;9971;52.446;13.452;2022-09-01T15:09:43;0.10;;;0.10;;
19645;SDS011;9971;52.446;13.452;2022-09-01T15:14:45;0.07;;;0.07;;
19645;SDS011;9971;52.446;13.452;2022-09-01T15:19:49;0.00;;;0.00;;
19645;SDS011;9971;52.446;13.452;2022-09-01T15:24:52;0.20;;;0.20;;
19645;SDS011;9971;52.446;13.452;2022-09-01T15:29:54;0.13;;;0.08;;
19645;SDS011;9971;52.446;13.452;2022-09-01T15:34:58;0.05;;;0.05;;
19645;SDS011;9971;52.446;13.452;2022-09-01T15:40:00;0.03;;;0.03;;
19645;SDS011;9971;52.446;13.452;2022-09-01T15:45:05;0.13;;;0.13;;
19645;SDS011;9971;52.446;13.452;2022-09-01T15:50:08;0.00;;;0.00;;
19645;SDS011;9971;52.446;13.452;2022-09-01T15:55:09;0.07;;;0.07;;
19645;SDS011;9971;52.446;13.452;2022-09-01T16:00:12;0.00;;;0.00;;
19645;SDS011;9971;52.446;13.452;2022-09-01T16:05:15;0.15;;;0.13;;
19645;SDS011;9971;52.446;13.452;2022-09-01T16:10:18;0.00;;;0.00;;
19645;SDS011;9971;52.446;13.452;2022-09-01T16:15:21;0.05;;;0.05;;
19645;SDS011;9971;52.446;13.452;2022-09-01T16:20:23;0.07;;;0.00;;
19645;SDS011;9971;52.446;13.452;2022-09-01T16:25:26;0.00;;;0.00;;
19645;SDS011;9971;52.446;13.452;2022-09-01T16:30:27;0.00;;;0.00;;
19645;SDS011;9971;52.446;13.452;2022-09-01T16:35:34;0.00;;;0.00;;
19645;SDS011;9971;52.446;13.452;2022-09-01T16:40:50;0.00;;;0.00;;
19645;SDS011;9971;52.446;13.452;2022-09-01T16:51:03;0.23;;;0.20;;
19645;SDS011;9971;52.446;13.452;2022-09-01T16:56:08;0.00;;;0.00;;
19645;SDS011;9971;52.446;13.452;2022-09-01T17:01:13;0.03;;;0.03;;
19645;SDS011;9971;52.446;13.452;2022-09-01T17:06:17;0.00;;;0.00;;
19645;SDS011;9971;52.446;13.452;2022-09-01T17:16:49;0.00;;;0.00;;
19645;SDS011;9971;52.446;13.452;2022-09-01T17:21:55;0.10;;;0.10;;
19645;SDS011;9971;52.446;13.452;2022-09-01T17:26:57;0.13;;;0.10;;
19645;SDS011;9971;52.446;13.452;2022-09-01T17:32:02;0.03;;;0.03;;
19645;SDS011;9971;52.446;13.452;2022-09-01T17:42:29;0.20;;;0.10;;
19645;SDS011;9971;52.446;13.452;2022-09-01T17:47:34;0.00;;;0.00;;
19645;SDS011;9971;52.446;13.452;2022-09-01T17:52:43;0.00;;;0.00;;
19645;SDS011;9971;52.446;13.452;2022-09-01T17:57:51;1.10;;;0.20;;
19645;SDS011;9971;52.446;13.452;2022-09-01T18:13:31;0.10;;;0.10;;
19645;SDS011;9971;52.446;13.452;2022-09-01T18:18:34;0.00;;;0.00;;
19645;SDS011;9971;52.446;13.452;2022-09-01T18:23:39;0.10;;;0.10;;
19645;SDS011;9971;52.446;13.452;2022-09-01T18:28:39;0.30;;;0.30;;
19645;SDS011;9971;52.446;13.452;2022-09-01T18:33:44;0.17;;;0.17;;
19645;SDS011;9971;52.446;13.452;2022-09-01T18:39:06;0.23;;;0.23;;
19645;SDS011;9971;52.446;13.452;2022-09-01T18:44:26;0.47;;;0.47;;
19645;SDS011;9971;52.446;13.452;2022-09-01T18:49:32;0.30;;;0.30;;
19645;SDS011;9971;52.446;13.452;2022-09-01T18:55:01;0.40;;;0.40;;
19645;SDS011;9971;52.446;13.452;2022-09-01T19:00:08;0.10;;;0.10;;
19645;SDS011;9971;52.446;13.452;2022-09-01T19:05:23;0.23;;;0.20;;
19645;SDS011;9971;52.446;13.452;2022-09-01T19:10:28;0.20;;;0.20;;
19645;SDS011;9971;52.446;13.452;2022-09-01T19:15:33;0.27;;;0.20;;
19645;SDS011;9971;52.446;13.452;2022-09-01T19:20:40;0.20;;;0.20;;
19645;SDS011;9971;52.446;13.452;2022-09-01T19:25:36;0.23;;;0.23;;
19645;SDS011;9971;52.446;13.452;2022-09-01T19:30:39;0.30;;;0.30;;
19645;SDS011;9971;52.446;13.452;2022-09-01T19:35:40;0.20;;;0.20;;
19645;SDS011;9971;52.446;13.452;2022-09-01T19:40:41;0.20;;;0.20;;
19645;SDS011;9971;52.446;13.452;2022-09-01T19:45:50;0.27;;;0.27;;
19645;SDS011;9971;52.446;13.452;2022-09-01T19:50:49;0.20;;;0.20;;
19645;SDS011;9971;52.446;13.452;2022-09-01T19:55:53;0.20;;;0.20;;
19645;SDS011;9971;52.446;13.452;2022-09-01T20:00:53;0.20;;;0.20;;
19645;SDS011;9971;52.446;13.452;2022-09-01T20:05:58;0.20;;;0.20;;
19645;SDS011;9971;52.446;13.452;2022-09-01T20:11:01;0.27;;;0.27;;
19645;SDS011;9971;52.446;13.452;2022-09-01T20:16:06;0.30;;;0.30;;
19645;SDS011;9971;52.446;13.452;2022-09-01T20:21:09;0.37;;;0.37;;
19645;SDS011;9971;52.446;13.452;2022-09-01T20:26:17;0.27;;;0.13;;
19645;SDS011;9971;52.446;13.452;2022-09-01T20:31:27;0.53;;;0.30;;
19645;SDS011;9971;52.446;13.452;2022-09-01T20:36:33;0.37;;;0.20;;
19645;SDS011;9971;52.446;13.452;2022-09-01T20:41:37;0.37;;;0.37;;
19645;SDS011;9971;52.446;13.452;2022-09-01T20:46:41;0.25;;;0.25;;
19645;SDS011;9971;52.446;13.452;2022-09-01T20:51:46;0.37;;;0.37;;
19645;SDS011;9971;52.446;13.452;2022-09-01T20:57:01;0.10;;;0.10;;
19645;SDS011;9971;52.446;13.452;2022-09-01T21:02:17;0.33;;;0.23;;
19645;SDS011;9971;52.446;13.452;2022-09-01T21:07:30;0.20;;;0.20;;
19645;SDS011;9971;52.446;13.452;2022-09-01T21:12:49;0.37;;;0.20;;
19645;SDS011;9971;52.446;13.452;2022-09-01T21:17:56;1.05;;;0.37;;
19645;SDS011;9971;52.446;13.452;2022-09-01T21:23:08;0.30;;;0.30;;
19645;SDS011;9971;52.446;13.452;2022-09-01T21:28:11;0.20;;;0.17;;
19645;SDS011;9971;52.446;13.452;2022-09-01T21:33:13;0.30;;;0.30;;
19645;SDS011;9971;52.446;13.452;2022-09-01T21:38:16;0.20;;;0.20;;
19645;SDS011;9971;52.446;13.452;2022-09-01T21:43:20;0.30;;;0.30;;
19645;SDS011;9971;52.446;13.452;2022-09-01T21:48:21;0.30;;;0.30;;
19645;SDS011;9971;52.446;13.452;2022-09-01T21:53:25;0.10;;;0.10;;
19645;SDS011;9971;52.446;13.452;2022-09-01T21:58:27;0.13;;;0.13;;
19645;SDS011;9971;52.446;13.452;2022-09-01T22:03:29;0.20;;;0.20;;
19645;SDS011;9971;52.446;13.452;2022-09-01T22:08:32;0.20;;;0.20;;
19645;SDS011;9971;52.446;13.452;2022-09-01T22:13:34;0.30;;;0.30;;
19645;SDS011;9971;52.446;13.452;2022-09-01T22:18:37;0.45;;;0.30;;
19645;SDS011;9971;52.446;13.452;2022-09-01T22:23:39;0.17;;;0.17;;
19645;SDS011;9971;52.446;13.452;2022-09-01T22:28:41;0.10;;;0.10;;
19645;SDS011;9971;52.446;13.452;2022-09-01T22:33:48;0.17;;;0.17;;
19645;SDS011;9971;52.446;13.452;2022-09-01T22:38:57;0.30;;;0.30;;
19645;SDS011;9971;52.446;13.452;2022-09-01T22:43:59;0.10;;;0.10;;
19645;SDS011;9971;52.446;13.452;2022-09-01T22:49:01;0.20;;;0.20;;
19645;SDS011;9971;52.446;13.452;2022-09-01T22:54:03;0.10;;;0.10;;
19645;SDS011;9971;52.446;13.452;2022-09-01T22:59:07;0.13;;;0.13;;
19645;SDS011;9971;52.446;13.452;2022-09-01T23:04:09;0.10;;;0.10;;
19645;SDS011;9971;52.446;13.452;2022-09-01T23:09:14;0.20;;;0.17;;
19645;SDS011;9971;52.446;13.452;2022-09-01T23:14:30;0.27;;;0.27;;
19645;SDS011;9971;52.446;13.452;2022-09-01T23:25:19;0.27;;;0.20;;
19645;SDS011;9971;52.446;13.452;2022-09-01T23:30:21;0.03;;;0.03;;
19645;SDS011;9971;52.446;13.452;2022-09-01T23:35:25;0.20;;;0.20;;
19645;SDS011;9971;52.446;13.452;2022-09-01T23:40:27;0.10;;;0.10;;
19645;SDS011;9971;52.446;13.452;2022-09-01T23:45:30;0.10;;;0.10;;
19645;SDS011;9971;52.446;13.452;2022-09-01T23:50:35;0.10;;;0.10;;
19645;SDS011;9971;52.446;13.452;2022-09-01T23:55:51;0.03;;;0.03;;
